Airfield :
LOGIN :

Register | Disclaimer

   EN    FR    IT 

 










Legend :    VFR   Marginal VFR   IFR   Intensive IFR   Very Intensive IFR
Visi :
Ceiling :
>= 8 km
>= 3000ft
5 to 8 km
1000 to 3000 ft
1500m to 5 km
500 to 1000 ft
800 to 1500m
200 to 500 ft
< 800m
< 200 ft
Symbols :   Thunderstorms  Fog  Heavy snow  Heavy precipitations  Wind > 20 kt
SIGMETs :     Misc.  Thunderstorms  Icing  Turbulence  Mountain Waves  Volcanic Ashes







- Airport Elevation : 600 ft
- IATA code : VIE


LOWW - Vienna Schwechat

CURRENT METAR :
  • 222350Z 28021KT CAVOK 12/05 Q1007 NOSIG

EXPIRED METARs :
  • 222320Z 28018G33KT CAVOK 12/05 Q1007 NOSIG
  • 222250Z 26017G28KT CAVOK 13/05 Q1007 NOSIG
  • 222220Z 25017KT 9999 FEW040 OVC110 12/05 Q1007 NOSIG
  • 222150Z 25014KT 9999 FEW044 OVC110 12/05 Q1007 NOSIG
  • 222120Z 26016KT CAVOK 12/05 Q1008 NOSIG

TAF TAF LOWW
Valid from the 23 at 00:00 until the 24 at 06:00 UTC


222315Z 2300/2406 26012KT 9999 FEW040 BKN100 TX15/2312Z TN06/2323Z
TEMPO 2300/2312 28020G30KT
TEMPO 2303/2310 -RA BKN050
BECMG 2313/2315 17007KT CAVOK
FM240000 29022G35KT 9999 FEW050 BKN100
No reported NOTAMs for that airfield.



MET'MAP, your aeronautical weather chart ! - Copyright ORBIFLY December 2007 - Disclaimer

ORBIFLY MET'MAP TEAM :

Programming & Development : Alexandra Zaïnal
Concept & Development : Baudouin d'Aumeries
Co-Development & Prog : Marc-Olivier Méhu
Technical & hardware support : Manuel Goepfert

Contact : metmap@orbifly.com




SOURCES & CREDITS :

   NOAA